Time;durP1;ratioP1;P1;durP2;ratioP2;P2;SDS_P1;SDS_P2;PMS_P1;PMS_P2;Temp;Humidity;BMP_temperature;BMP_pressure;BME280_temperature;BME280_humidity;BME280_pressure;Samples;Min_cycle;Max_cycle;Signal;HPM_P1;HPM_P2
2021/11/23 00:00:00;;;;;;;52.90;30.02;;;8.30;99.90;;;;;;5071713;28;20047;-48
2021/11/23 00:02:27;;;;;;;50.05;27.85;;;8.30;99.90;;;;;;5072027;28;20108;-47
2021/11/23 00:04:52;;;;;;;45.60;27.17;;;8.30;99.90;;;;;;5072256;28;20044;-49
2021/11/23 00:07:18;;;;;;;41.35;24.00;;;8.30;99.90;;;;;;5072050;28;20048;-49
2021/11/23 00:09:44;;;;;;;45.40;26.05;;;8.20;99.90;;;;;;5071737;28;20025;-50
2021/11/23 00:12:10;;;;;;;47.70;26.75;;;8.20;99.90;;;;;;5072113;28;20033;-48
2021/11/23 00:14:36;;;;;;;40.85;24.48;;;8.30;99.90;;;;;;5071560;28;20049;-48
2021/11/23 00:17:02;;;;;;;43.53;26.33;;;8.30;99.90;;;;;;5071768;28;20020;-50
2021/11/23 00:19:28;;;;;;;47.20;25.80;;;8.30;99.90;;;;;;5069474;28;20047;-47
2021/11/23 00:21:54;;;;;;;44.47;25.55;;;8.30;99.90;;;;;;5071856;28;20472;-49
2021/11/23 00:24:19;;;;;;;40.55;23.40;;;8.20;99.90;;;;;;5086055;28;20044;-48
2021/11/23 00:26:45;;;;;;;39.88;23.42;;;8.30;99.90;;;;;;5069421;28;20127;-48
2021/11/23 00:29:11;;;;;;;42.58;24.73;;;8.30;99.90;;;;;;5075374;28;20028;-47
2021/11/23 00:31:37;;;;;;;37.60;24.02;;;8.30;99.90;;;;;;5072932;28;20028;-50
2021/11/23 00:34:02;;;;;;;38.25;23.35;;;8.30;99.90;;;;;;5075113;28;20086;-49
2021/11/23 00:36:30;;;;;;;43.00;24.38;;;8.30;99.90;;;;;;5039517;28;20045;-50
2021/11/23 00:38:56;;;;;;;41.03;24.80;;;8.30;99.90;;;;;;5074882;28;20041;-47
2021/11/23 00:41:22;;;;;;;37.42;22.02;;;8.40;99.90;;;;;;5089780;28;20433;-47
2021/11/23 00:43:48;;;;;;;45.03;26.75;;;8.40;99.90;;;;;;5089623;28;20064;-47
2021/11/23 00:46:15;;;;;;;37.25;23.73;;;8.40;99.90;;;;;;5075098;28;20032;-49
2021/11/23 00:48:41;;;;;;;35.92;22.15;;;8.40;99.90;;;;;;5074867;28;20472;-48
2021/11/23 00:51:07;;;;;;;69.25;42.78;;;8.30;99.90;;;;;;5072507;28;20124;-47
2021/11/23 00:53:34;;;;;;;55.45;33.67;;;8.30;99.90;;;;;;5074733;28;20103;-47
2021/11/23 00:56:08;;;;;;;42.95;26.73;;;8.30;99.90;;;;;;5074579;28;20021;-48
2021/11/23 00:58:34;;;;;;;34.80;20.52;;;8.30;99.90;;;;;;5089512;28;20064;-49
2021/11/23 01:01:01;;;;;;;33.15;22.23;;;8.20;99.90;;;;;;5074475;28;20078;-48
2021/11/23 01:03:30;;;;;;;31.60;20.65;;;8.20;99.90;;;;;;5074444;28;20495;-47
2021/11/23 01:05:58;;;;;;;37.42;23.88;;;8.10;99.90;;;;;;5074426;28;20119;-49
2021/11/23 01:08:25;;;;;;;35.65;22.80;;;8.20;99.90;;;;;;5074435;28;20086;-47
2021/11/23 01:10:51;;;;;;;35.10;21.45;;;8.30;99.90;;;;;;5089049;28;20041;-49
2021/11/23 01:13:18;;;;;;;31.45;20.23;;;8.30;99.90;;;;;;5089081;28;20052;-46
2021/11/23 01:15:43;;;;;;;32.50;20.60;;;8.30;99.90;;;;;;5074215;28;20132;-49
2021/11/23 01:18:10;;;;;;;29.77;19.10;;;8.20;99.90;;;;;;5074240;28;20099;-49
2021/11/23 01:20:36;;;;;;;30.55;19.85;;;8.20;99.90;;;;;;5074299;28;20025;-50
2021/11/23 01:23:03;;;;;;;35.08;21.75;;;8.30;99.90;;;;;;5071890;28;20072;-47
2021/11/23 01:25:30;;;;;;;30.90;19.60;;;8.20;99.90;;;;;;5074482;28;20049;-48
2021/11/23 01:27:56;;;;;;;32.72;19.58;;;8.30;99.90;;;;;;5073913;28;20017;-47
2021/11/23 01:30:22;;;;;;;28.42;18.98;;;8.30;99.90;;;;;;5074301;28;20024;-48
2021/11/23 01:32:48;;;;;;;27.00;17.75;;;8.30;99.90;;;;;;5035319;28;20036;-49
2021/11/23 01:35:14;;;;;;;29.52;18.38;;;8.30;99.90;;;;;;5073550;28;20042;-48
2021/11/23 01:37:42;;;;;;;26.95;18.10;;;8.20;99.90;;;;;;5073736;28;20032;-49
2021/11/23 01:40:09;;;;;;;32.95;22.23;;;8.20;99.90;;;;;;5073681;28;20056;-48
2021/11/23 01:42:35;;;;;;;40.67;28.27;;;8.30;99.90;;;;;;5037808;28;20048;-48
2021/11/23 01:45:02;;;;;;;29.05;20.02;;;8.40;99.90;;;;;;5038106;28;20074;-50
2021/11/23 01:47:27;;;;;;;29.52;18.10;;;8.40;99.90;;;;;;5073899;28;20089;-47
2021/11/23 01:49:53;;;;;;;30.85;19.30;;;8.40;99.90;;;;;;5071546;28;20533;-49
2021/11/23 01:52:20;;;;;;;44.42;29.08;;;8.40;99.90;;;;;;5088187;28;20831;-47
2021/11/23 01:54:46;;;;;;;31.65;20.30;;;8.40;99.90;;;;;;5073607;28;20020;-49
2021/11/23 01:57:12;;;;;;;28.48;18.60;;;8.40;99.90;;;;;;5073733;28;20535;-47
2021/11/23 01:59:38;;;;;;;26.77;16.50;;;8.40;99.90;;;;;;5073434;28;20086;-52
2021/11/23 02:02:04;;;;;;;23.58;14.93;;;8.40;99.90;;;;;;5073302;28;20025;-48
2021/11/23 02:04:30;;;;;;;29.13;17.52;;;8.30;99.90;;;;;;5073242;28;20086;-49
2021/11/23 02:06:56;;;;;;;28.95;16.85;;;8.40;99.90;;;;;;5073156;28;20034;-48
2021/11/23 02:09:21;;;;;;;27.42;16.85;;;8.50;99.90;;;;;;5073463;28;20111;-47
2021/11/23 02:11:47;;;;;;;23.10;13.43;;;8.50;99.90;;;;;;5071002;28;20083;-47
2021/11/23 02:14:14;;;;;;;29.48;17.70;;;8.30;99.90;;;;;;5072986;28;20052;-47
2021/11/23 02:16:39;;;;;;;39.28;23.15;;;8.30;99.90;;;;;;5073043;28;20536;-48
2021/11/23 02:19:05;;;;;;;32.33;20.42;;;8.40;99.90;;;;;;5071004;28;20127;-48
2021/11/23 02:21:31;;;;;;;34.22;19.95;;;8.40;99.90;;;;;;5070936;28;20033;-49
2021/11/23 02:23:58;;;;;;;31.95;18.48;;;8.30;99.90;;;;;;5037187;28;20090;-48
2021/11/23 02:26:24;;;;;;;27.58;16.13;;;8.50;99.90;;;;;;5070287;28;20587;-49
2021/11/23 02:28:51;;;;;;;33.03;17.70;;;8.30;99.90;;;;;;5070467;28;20099;-49
2021/11/23 02:31:16;;;;;;;35.88;19.27;;;8.40;99.90;;;;;;5070156;28;20094;-48
2021/11/23 02:33:42;;;;;;;32.83;17.52;;;8.40;99.90;;;;;;5070532;28;20036;-50
2021/11/23 02:36:10;;;;;;;32.97;18.88;;;8.30;99.90;;;;;;5036976;28;20070;-49
2021/11/23 02:38:37;;;;;;;31.52;16.42;;;8.40;99.90;;;;;;5034134;28;20039;-48
2021/11/23 02:41:05;;;;;;;30.20;14.48;;;8.30;99.90;;;;;;5004190;28;20041;-49
2021/11/23 02:43:31;;;;;;;33.55;18.30;;;8.20;99.90;;;;;;5070243;28;20436;-47
2021/11/23 02:45:57;;;;;;;35.85;19.23;;;8.20;99.90;;;;;;5070261;28;20515;-48
2021/11/23 02:48:23;;;;;;;37.60;19.13;;;8.30;99.90;;;;;;5070158;28;20131;-47
2021/11/23 02:51:00;;;;;;;31.58;15.50;;;8.30;99.90;;;;;;5036154;28;20369;-48
2021/11/23 02:53:26;;;;;;;30.33;16.10;;;8.30;99.90;;;;;;5070039;28;20032;-47
2021/11/23 02:55:52;;;;;;;38.28;19.08;;;8.30;99.90;;;;;;5070251;28;20063;-50
2021/11/23 02:58:18;;;;;;;34.30;19.42;;;8.30;99.90;;;;;;5072054;28;20055;-49
2021/11/23 03:00:44;;;;;;;38.60;18.35;;;8.40;99.90;;;;;;5072495;28;20507;-49
2021/11/23 03:03:11;;;;;;;36.80;18.83;;;8.50;99.90;;;;;;5087131;28;20475;-48
2021/11/23 03:05:37;;;;;;;33.45;17.63;;;8.60;99.90;;;;;;5072272;28;20372;-47
2021/11/23 03:08:03;;;;;;;36.70;18.73;;;8.40;99.90;;;;;;5072463;28;20029;-49
2021/11/23 03:10:30;;;;;;;35.40;17.20;;;8.50;99.90;;;;;;5086971;28;20028;-49
2021/11/23 03:12:57;;;;;;;43.72;19.98;;;8.50;99.90;;;;;;5071982;28;20449;-50
2021/11/23 03:15:25;;;;;;;40.88;20.55;;;8.60;99.90;;;;;;5072114;28;20499;-49
2021/11/23 03:17:51;;;;;;;42.25;20.55;;;8.70;99.90;;;;;;5072347;28;20393;-47
2021/11/23 03:20:19;;;;;;;32.53;18.23;;;8.70;99.90;;;;;;5072411;28;20388;-49
2021/11/23 03:22:45;;;;;;;32.53;18.83;;;8.70;99.90;;;;;;5072044;28;20416;-49
2021/11/23 03:25:11;;;;;;;37.35;20.42;;;8.80;99.90;;;;;;5036470;28;20151;-48
2021/11/23 03:27:37;;;;;;;36.85;19.88;;;8.80;99.90;;;;;;5072314;28;20055;-49
2021/11/23 03:30:08;;;;;;;32.78;17.67;;;8.90;99.90;;;;;;5086941;28;20068;-48
2021/11/23 03:32:34;;;;;;;32.17;18.77;;;8.80;99.90;;;;;;5072042;28;20029;-47
2021/11/23 03:35:00;;;;;;;38.78;19.60;;;8.80;99.90;;;;;;5072373;28;20027;-48
2021/11/23 03:37:26;;;;;;;44.83;19.92;;;8.80;99.90;;;;;;5036386;28;20037;-48
2021/11/23 03:39:54;;;;;;;38.42;19.60;;;8.80;99.90;;;;;;5072091;28;20024;-49
2021/11/23 03:42:21;;;;;;;34.83;20.40;;;8.90;99.90;;;;;;5072077;28;20025;-47
2021/11/23 03:44:47;;;;;;;38.30;20.35;;;9.00;99.90;;;;;;5071752;28;20040;-49
2021/11/23 03:47:15;;;;;;;39.58;21.17;;;9.00;99.90;;;;;;5069836;28;20511;-47
2021/11/23 03:49:43;;;;;;;44.10;21.63;;;9.00;99.90;;;;;;5071904;28;20024;-49
2021/11/23 03:52:10;;;;;;;44.35;21.02;;;9.00;99.90;;;;;;5072375;28;20105;-47
2021/11/23 03:54:37;;;;;;;39.78;20.38;;;9.00;99.90;;;;;;5072313;28;20116;-49
2021/11/23 03:57:04;;;;;;;38.67;21.27;;;9.00;99.90;;;;;;5071995;28;20024;-48
2021/11/23 03:59:29;;;;;;;41.15;23.17;;;9.00;99.90;;;;;;5069647;28;20029;-49
2021/11/23 04:01:55;;;;;;;38.38;20.88;;;9.00;99.90;;;;;;5072134;28;20040;-49
2021/11/23 04:04:21;;;;;;;42.63;21.02;;;8.80;99.90;;;;;;5073552;28;20041;-49
2021/11/23 04:06:47;;;;;;;41.90;23.95;;;8.70;99.90;;;;;;5073195;28;20040;-49
2021/11/23 04:09:13;;;;;;;42.70;22.65;;;8.70;99.90;;;;;;5075736;28;20453;-49
2021/11/23 04:11:38;;;;;;;46.72;24.92;;;8.70;99.90;;;;;;5075372;28;20029;-49
2021/11/23 04:14:04;;;;;;;45.63;24.00;;;8.80;99.90;;;;;;5089997;28;20488;-48
2021/11/23 04:16:30;;;;;;;42.45;24.40;;;8.90;99.90;;;;;;5075421;28;20074;-47
2021/11/23 04:18:56;;;;;;;38.90;23.13;;;9.00;99.90;;;;;;5073041;28;20040;-47
2021/11/23 04:21:22;;;;;;;56.30;26.58;;;9.00;99.90;;;;;;5090013;28;20566;-47
2021/11/23 04:23:49;;;;;;;42.22;24.75;;;9.00;99.90;;;;;;5075029;28;20123;-48
2021/11/23 04:26:15;;;;;;;49.00;25.70;;;8.90;99.90;;;;;;5075311;28;20025;-48
2021/11/23 04:28:41;;;;;;;45.30;25.75;;;8.90;99.90;;;;;;5089918;28;20082;-49
2021/11/23 04:31:06;;;;;;;43.25;26.85;;;9.00;99.90;;;;;;5075391;28;20024;-50
2021/11/23 04:33:34;;;;;;;52.67;27.77;;;9.10;99.90;;;;;;5075245;28;20032;-48
2021/11/23 04:36:00;;;;;;;49.75;26.92;;;9.10;99.90;;;;;;5075074;28;20123;-49
2021/11/23 04:38:26;;;;;;;51.95;26.25;;;9.20;99.90;;;;;;5075031;28;20527;-47
2021/11/23 04:40:52;;;;;;;49.10;27.33;;;9.20;99.90;;;;;;5074978;28;20085;-49
2021/11/23 04:43:17;;;;;;;44.80;26.70;;;9.20;99.90;;;;;;5074872;28;20620;-47
2021/11/23 04:45:43;;;;;;;45.58;25.73;;;9.10;99.90;;;;;;5074830;28;20545;-49
2021/11/23 04:48:09;;;;;;;45.53;25.65;;;9.20;99.90;;;;;;5072756;28;20039;-49
2021/11/23 04:50:35;;;;;;;56.33;28.77;;;9.10;99.90;;;;;;5074710;28;20025;-47
2021/11/23 04:53:04;;;;;;;53.25;28.15;;;9.30;99.90;;;;;;5072830;28;20054;-48
2021/11/23 04:55:30;;;;;;;48.75;26.80;;;9.30;99.90;;;;;;5073408;28;20107;-49
2021/11/23 04:57:57;;;;;;;44.13;26.35;;;9.30;99.90;;;;;;5074153;28;20021;-49
2021/11/23 05:00:23;;;;;;;44.40;23.52;;;9.10;99.90;;;;;;5072768;28;20559;-49
2021/11/23 05:02:48;;;;;;;50.92;28.60;;;8.80;99.90;;;;;;5072330;28;20036;-49
2021/11/23 05:05:15;;;;;;;51.13;27.63;;;8.80;99.90;;;;;;5074635;28;20476;-46
2021/11/23 05:07:43;;;;;;;51.88;28.30;;;9.00;99.90;;;;;;5071154;28;20036;-49
2021/11/23 05:10:10;;;;;;;50.38;29.88;;;8.80;99.90;;;;;;5071987;28;20552;-47
2021/11/23 05:12:37;;;;;;;57.15;31.10;;;8.90;99.90;;;;;;5071535;28;20040;-48
2021/11/23 05:15:04;;;;;;;50.25;29.40;;;9.00;99.90;;;;;;5071739;28;20028;-49
2021/11/23 05:17:29;;;;;;;50.88;31.42;;;8.90;99.90;;;;;;5038587;28;20047;-50
2021/11/23 05:19:55;;;;;;;52.40;30.83;;;8.90;99.90;;;;;;5071824;28;20025;-49
2021/11/23 05:22:21;;;;;;;52.85;29.55;;;8.90;99.90;;;;;;5038283;28;20126;-48
2021/11/23 05:24:47;;;;;;;44.28;27.52;;;9.00;99.90;;;;;;5005366;28;20110;-49
2021/11/23 05:27:13;;;;;;;48.55;30.02;;;9.00;99.90;;;;;;5054277;28;20262;-49
2021/11/23 05:29:39;;;;;;;48.55;28.98;;;9.10;99.90;;;;;;5038236;28;20037;-49
2021/11/23 05:32:05;;;;;;;56.78;31.05;;;8.90;99.90;;;;;;5038126;28;20040;-47
2021/11/23 05:34:31;;;;;;;61.38;32.85;;;9.00;99.90;;;;;;5071649;28;20035;-49
2021/11/23 05:36:57;;;;;;;55.80;31.45;;;9.00;99.90;;;;;;5037882;28;20404;-47
2021/11/23 05:39:23;;;;;;;53.53;31.48;;;9.00;99.90;;;;;;5005120;28;20051;-47
2021/11/23 05:41:50;;;;;;;52.47;29.55;;;8.90;99.90;;;;;;5073757;28;20094;-47
2021/11/23 05:44:16;;;;;;;53.63;30.85;;;9.00;99.90;;;;;;5073607;28;20034;-48
2021/11/23 05:46:42;;;;;;;53.67;31.25;;;8.80;99.90;;;;;;5088504;28;20492;-48
2021/11/23 05:49:08;;;;;;;60.40;30.80;;;9.00;99.90;;;;;;5073643;28;20028;-48
2021/11/23 05:51:34;;;;;;;51.95;31.63;;;9.00;99.90;;;;;;5073782;28;20055;-50
2021/11/23 05:54:00;;;;;;;60.42;32.17;;;9.00;99.90;;;;;;5073607;28;20024;-49
2021/11/23 05:56:26;;;;;;;55.15;32.42;;;9.10;99.90;;;;;;5088354;28;20044;-50
2021/11/23 05:58:52;;;;;;;61.65;32.80;;;9.10;99.90;;;;;;5073593;28;20033;-49
2021/11/23 06:01:18;;;;;;;58.47;31.95;;;9.10;99.90;;;;;;5088108;28;20052;-50
2021/11/23 06:03:44;;;;;;;60.85;33.30;;;9.10;99.90;;;;;;5073334;28;20085;-49
2021/11/23 06:06:13;;;;;;;59.97;33.05;;;9.10;99.90;;;;;;5070180;28;20044;-49
2021/11/23 06:08:40;;;;;;;66.88;37.33;;;9.10;99.90;;;;;;5073560;28;20032;-49
2021/11/23 06:11:06;;;;;;;64.43;35.90;;;9.00;99.90;;;;;;5073356;28;20028;-49
2021/11/23 06:13:33;;;;;;;56.47;32.53;;;9.10;99.90;;;;;;5072051;28;20044;-46
2021/11/23 06:15:59;;;;;;;57.92;33.13;;;8.90;99.90;;;;;;5087957;28;20055;-49
2021/11/23 06:18:24;;;;;;;62.42;35.90;;;8.90;99.90;;;;;;5087893;28;20480;-49
2021/11/23 06:20:55;;;;;;;65.65;35.60;;;9.00;99.90;;;;;;5073102;28;20025;-49
2021/11/23 06:23:23;;;;;;;63.40;35.20;;;8.90;99.90;;;;;;5073149;28;20029;-48
2021/11/23 06:25:51;;;;;;;59.90;35.30;;;9.00;99.90;;;;;;5071076;28;20035;-50
2021/11/23 06:28:19;;;;;;;62.00;35.03;;;9.00;99.90;;;;;;5067374;28;20398;-50
2021/11/23 06:30:46;;;;;;;54.28;32.67;;;9.10;99.90;;;;;;5069671;28;20027;-49
2021/11/23 06:33:12;;;;;;;59.33;34.30;;;9.10;99.90;;;;;;5069179;28;20139;-50
2021/11/23 06:35:38;;;;;;;54.38;33.58;;;9.10;99.90;;;;;;5068120;28;20107;-48
2021/11/23 06:38:05;;;;;;;58.53;35.58;;;9.10;99.90;;;;;;5061479;28;20484;-49
2021/11/23 06:40:33;;;;;;;59.58;35.25;;;8.90;99.90;;;;;;5081331;28;20131;-48
2021/11/23 06:42:59;;;;;;;59.70;35.10;;;8.80;99.90;;;;;;5064122;28;20086;-48
2021/11/23 06:45:25;;;;;;;65.50;35.65;;;8.80;99.90;;;;;;5025238;28;20040;-49
2021/11/23 06:47:51;;;;;;;61.45;36.85;;;8.80;99.90;;;;;;5065785;28;20040;-48
2021/11/23 06:50:18;;;;;;;56.55;35.90;;;9.00;99.90;;;;;;5061287;28;20029;-50
2021/11/23 06:52:44;;;;;;;65.40;37.92;;;9.10;99.90;;;;;;5066542;28;20028;-48
2021/11/23 06:55:10;;;;;;;59.08;36.33;;;9.20;99.90;;;;;;5064360;28;20048;-49
2021/11/23 06:57:36;;;;;;;61.72;36.92;;;9.30;99.90;;;;;;5063114;28;20738;-48
2021/11/23 07:00:04;;;;;;;58.25;37.45;;;9.40;99.90;;;;;;5068335;28;20024;-50
2021/11/23 07:02:30;;;;;;;58.85;36.20;;;9.50;99.90;;;;;;5064960;28;20119;-47
2021/11/23 07:04:56;;;;;;;60.58;37.83;;;9.50;99.90;;;;;;5065417;28;20123;-50
2021/11/23 07:07:21;;;;;;;62.22;39.22;;;9.30;99.90;;;;;;5068762;28;20537;-49
2021/11/23 07:09:47;;;;;;;61.58;39.13;;;9.40;99.90;;;;;;5064812;28;20078;-47
2021/11/23 07:12:13;;;;;;;63.90;39.05;;;9.40;99.90;;;;;;5068749;28;20072;-48
2021/11/23 07:14:39;;;;;;;65.18;38.40;;;9.40;99.90;;;;;;5046187;28;20378;-48
2021/11/23 07:17:05;;;;;;;66.53;39.30;;;9.50;99.90;;;;;;5075783;28;20067;-52
2021/11/23 07:19:40;;;;;;;75.18;46.80;;;9.50;99.90;;;;;;5068402;28;20036;-52
2021/11/23 07:22:06;;;;;;;68.38;39.72;;;9.60;99.90;;;;;;5008764;28;20054;-50
2021/11/23 07:24:32;;;;;;;62.88;37.97;;;9.50;99.90;;;;;;5009798;28;20045;-45
2021/11/23 07:26:58;;;;;;;72.15;48.97;;;9.70;99.90;;;;;;5009484;28;20041;-50
2021/11/23 07:29:24;;;;;;;61.33;39.88;;;9.60;99.90;;;;;;5010196;28;20034;-49
2021/11/23 07:31:49;;;;;;;66.22;39.97;;;9.70;99.90;;;;;;5010163;28;20046;-50
2021/11/23 07:34:15;;;;;;;59.50;36.78;;;9.60;99.90;;;;;;5010175;28;20508;-50
2021/11/23 07:36:41;;;;;;;57.53;36.03;;;9.60;99.90;;;;;;5010107;28;20532;-50
2021/11/23 07:39:07;;;;;;;56.47;36.60;;;9.60;99.90;;;;;;4997638;28;20064;-48
2021/11/23 07:41:34;;;;;;;57.03;36.13;;;9.80;99.90;;;;;;5011980;28;20146;-49
2021/11/23 07:44:00;;;;;;;51.83;34.53;;;9.90;99.90;;;;;;5012951;28;20374;-48
2021/11/23 07:46:26;;;;;;;50.85;30.23;;;10.20;99.90;;;;;;5012219;28;20029;-48
2021/11/23 07:48:53;;;;;;;57.38;36.00;;;10.10;99.90;;;;;;4997170;28;20585;-47
2021/11/23 07:51:19;;;;;;;58.00;38.20;;;10.20;99.90;;;;;;5013824;28;20165;-48
2021/11/23 07:53:45;;;;;;;55.75;34.67;;;10.20;99.90;;;;;;5061262;28;20062;-48
2021/11/23 07:56:12;;;;;;;48.13;29.05;;;9.90;99.90;;;;;;5075823;28;20032;-48
2021/11/23 07:58:39;;;;;;;57.17;36.35;;;9.80;99.90;;;;;;5075449;28;20062;-49
2021/11/23 08:01:05;;;;;;;54.95;35.03;;;9.80;99.90;;;;;;5089579;28;20400;-50
2021/11/23 08:03:31;;;;;;;55.00;36.17;;;9.90;99.90;;;;;;5075386;28;20455;-50
2021/11/23 08:05:57;;;;;;;51.17;36.35;;;10.00;99.90;;;;;;5072105;28;20040;-49
2021/11/23 08:08:23;;;;;;;54.58;33.13;;;10.10;99.90;;;;;;5078643;28;20040;-48
2021/11/23 08:10:49;;;;;;;58.28;34.90;;;9.90;99.90;;;;;;5065982;28;20031;-50
2021/11/23 08:13:16;;;;;;;84.65;45.38;;;9.60;99.90;;;;;;5078670;28;20072;-48
2021/11/23 08:15:42;;;;;;;142.25;75.50;;;9.30;99.90;;;;;;5066460;28;20024;-49
2021/11/23 08:18:09;;;;;;;100.22;53.80;;;9.30;99.90;;;;;;5068966;28;20041;-47
2021/11/23 08:20:36;;;;;;;143.63;66.35;;;9.40;99.90;;;;;;5065461;28;20025;-48
2021/11/23 08:23:03;;;;;;;70.72;38.15;;;9.40;99.90;;;;;;5087445;28;20041;-49
2021/11/23 08:25:29;;;;;;;51.30;28.80;;;9.30;99.90;;;;;;5085723;28;20139;-49
2021/11/23 08:27:55;;;;;;;65.85;34.67;;;9.10;99.90;;;;;;5089988;28;20036;-49
2021/11/23 08:30:22;;;;;;;39.70;23.75;;;9.10;99.90;;;;;;5067955;28;20037;-47
2021/11/23 08:32:48;;;;;;;47.33;30.35;;;9.10;99.90;;;;;;5069890;28;20048;-47
2021/11/23 08:35:14;;;;;;;77.18;41.42;;;9.10;99.90;;;;;;5069758;28;20048;-47
2021/11/23 08:37:40;;;;;;;40.15;24.80;;;9.00;99.90;;;;;;5089746;28;20032;-47
2021/11/23 08:40:08;;;;;;;51.78;30.73;;;8.90;99.90;;;;;;5089739;28;20480;-47
2021/11/23 08:42:34;;;;;;;54.88;34.20;;;8.90;99.90;;;;;;5075186;28;20051;-49
2021/11/23 08:45:00;;;;;;;55.25;35.85;;;9.00;99.90;;;;;;5074851;28;20033;-50
2021/11/23 08:47:26;;;;;;;41.03;23.83;;;9.00;99.90;;;;;;5088862;28;20384;-43
2021/11/23 08:49:53;;;;;;;52.83;31.90;;;8.90;99.90;;;;;;5074377;28;20024;-48
2021/11/23 08:52:19;;;;;;;42.38;24.73;;;9.00;99.90;;;;;;5073070;28;20097;-46
2021/11/23 08:54:45;;;;;;;53.78;30.75;;;9.00;99.90;;;;;;5070733;28;20040;-46
2021/11/23 08:57:11;;;;;;;62.47;27.92;;;9.00;99.90;;;;;;5071735;28;20439;-48
2021/11/23 08:59:41;;;;;;;70.90;39.15;;;9.00;99.90;;;;;;5069594;28;20037;-47
2021/11/23 09:02:08;;;;;;;52.83;28.67;;;9.10;99.90;;;;;;5066495;28;20455;-47
2021/11/23 09:04:34;;;;;;;112.60;51.50;;;9.10;99.90;;;;;;5074578;28;20167;-47
2021/11/23 09:07:03;;;;;;;38.55;22.33;;;9.20;99.90;;;;;;5065395;28;20024;-48
2021/11/23 09:09:31;;;;;;;38.03;21.65;;;9.30;99.90;;;;;;5071039;28;20028;-47
2021/11/23 09:12:01;;;;;;;45.45;28.90;;;9.40;99.90;;;;;;5072529;28;20360;-46
2021/11/23 09:14:27;;;;;;;51.10;30.80;;;9.40;99.90;;;;;;5070476;28;20048;-47
2021/11/23 09:16:53;;;;;;;36.33;25.17;;;9.30;99.90;;;;;;5077132;28;20033;-47
2021/11/23 09:19:20;;;;;;;48.88;30.67;;;9.10;99.90;;;;;;5071862;28;20553;-46
2021/11/23 09:21:46;;;;;;;34.08;21.73;;;9.30;99.90;;;;;;5068953;28;20480;-47
2021/11/23 09:24:11;;;;;;;41.92;26.70;;;9.20;99.90;;;;;;5081055;28;20042;-47
2021/11/23 09:26:37;;;;;;;92.90;45.72;;;9.10;99.90;;;;;;5074883;28;20428;-46
2021/11/23 09:29:03;;;;;;;66.03;37.05;;;9.20;99.90;;;;;;5081370;28;20028;-48
2021/11/23 09:31:30;;;;;;;111.35;54.85;;;9.30;99.90;;;;;;5087557;28;20036;-47
2021/11/23 09:33:55;;;;;;;66.70;42.25;;;9.30;99.90;;;;;;5070822;28;20028;-46
2021/11/23 09:36:21;;;;;;;49.30;33.15;;;9.30;99.90;;;;;;5072675;28;20166;-47
2021/11/23 09:38:47;;;;;;;60.83;37.92;;;9.30;99.90;;;;;;5073182;28;20040;-47
2021/11/23 09:41:13;;;;;;;58.80;39.05;;;9.40;99.90;;;;;;5072154;28;20541;-48
2021/11/23 09:43:40;;;;;;;51.33;32.92;;;9.70;99.90;;;;;;5081599;28;20491;-47
2021/11/23 09:46:08;;;;;;;63.28;37.42;;;9.60;99.90;;;;;;5102277;28;20040;-47
2021/11/23 09:48:38;;;;;;;69.53;39.72;;;9.70;99.90;;;;;;5072312;28;20040;-47
2021/11/23 09:51:06;;;;;;;50.67;30.67;;;9.90;99.90;;;;;;5072436;28;20047;-47
2021/11/23 09:53:32;;;;;;;59.03;38.28;;;9.90;99.90;;;;;;5068360;28;20037;-44
2021/11/23 09:55:58;;;;;;;52.22;34.75;;;9.90;99.90;;;;;;5028049;28;20388;-47
2021/11/23 09:58:24;;;;;;;47.92;32.95;;;10.00;99.90;;;;;;5072957;28;20028;-48
2021/11/23 10:00:52;;;;;;;78.25;44.15;;;10.20;99.90;;;;;;5084775;28;20044;-48
2021/11/23 10:03:26;;;;;;;41.17;28.27;;;10.20;99.90;;;;;;5068916;28;20094;-48
2021/11/23 10:06:02;;;;;;;37.75;27.90;;;10.60;99.90;;;;;;5066068;28;20094;-48
2021/11/23 10:08:28;;;;;;;54.05;34.80;;;10.80;99.90;;;;;;5024579;28;20071;-48
2021/11/23 10:10:54;;;;;;;59.63;37.95;;;10.70;99.90;;;;;;5067716;28;20049;-48
2021/11/23 10:13:22;;;;;;;38.65;27.13;;;10.80;99.90;;;;;;5068850;28;20060;-48
2021/11/23 10:15:49;;;;;;;45.15;34.90;;;11.50;99.90;;;;;;5070264;28;20082;-48
2021/11/23 10:18:20;;;;;;;33.42;24.55;;;11.80;99.90;;;;;;5072651;28;20036;-48
2021/11/23 10:20:47;;;;;;;36.45;24.15;;;12.00;99.90;;;;;;5077806;28;20119;-49
2021/11/23 10:23:24;;;;;;;27.65;20.33;;;12.30;99.90;;;;;;5074437;28;20479;-49
2021/11/23 10:26:14;;;;;;;29.13;21.45;;;11.70;99.90;;;;;;5069961;28;20044;-48
2021/11/23 10:29:01;;;;;;;27.25;19.88;;;12.30;99.90;;;;;;5069706;28;20086;-48
2021/11/23 10:31:39;;;;;;;24.85;19.08;;;11.70;99.90;;;;;;5069750;28;20214;-48
2021/11/23 10:34:08;;;;;;;27.88;20.77;;;11.70;99.90;;;;;;5068988;28;20474;-48
2021/11/23 10:36:41;;;;;;;26.85;18.08;;;11.60;99.90;;;;;;5070923;28;20051;-48
2021/11/23 10:39:21;;;;;;;25.70;18.40;;;11.00;99.90;;;;;;5064539;28;20041;-48
2021/11/23 10:41:56;;;;;;;25.73;19.45;;;10.80;99.90;;;;;;5035932;28;20037;-48
2021/11/23 10:44:27;;;;;;;23.02;16.88;;;10.80;99.90;;;;;;5071505;28;20064;-48
2021/11/23 10:46:54;;;;;;;21.83;17.08;;;10.80;99.90;;;;;;5051639;28;20373;-48
2021/11/23 10:49:45;;;;;;;21.83;17.67;;;10.60;99.90;;;;;;5068419;28;20455;-48
2021/11/23 10:52:33;;;;;;;25.50;19.65;;;10.50;99.90;;;;;;5064154;28;20045;-48
2021/11/23 10:54:58;;;;;;;28.17;20.90;;;10.70;99.90;;;;;;5068668;28;20047;-48
2021/11/23 10:57:25;;;;;;;25.90;18.77;;;10.80;99.90;;;;;;5070694;28;20395;-49
2021/11/23 10:59:51;;;;;;;28.70;20.83;;;10.90;99.90;;;;;;5074660;28;20033;-49
2021/11/23 11:02:17;;;;;;;20.67;16.13;;;11.00;99.90;;;;;;5077366;28;20033;-48
2021/11/23 11:04:44;;;;;;;25.70;17.05;;;11.00;99.90;;;;;;5075553;28;20037;-48
2021/11/23 11:07:11;;;;;;;22.40;17.88;;;10.90;99.90;;;;;;5076351;28;20087;-48
2021/11/23 11:09:38;;;;;;;21.75;16.27;;;10.90;99.90;;;;;;5088825;28;20044;-48
2021/11/23 11:12:05;;;;;;;19.92;15.65;;;10.70;99.90;;;;;;5062168;28;20381;-48
2021/11/23 11:14:36;;;;;;;19.42;14.82;;;10.80;99.90;;;;;;5064708;28;20056;-48
2021/11/23 11:17:04;;;;;;;22.23;16.45;;;10.60;99.90;;;;;;5070548;28;20663;-48
2021/11/23 11:19:51;;;;;;;21.15;15.85;;;10.50;99.90;;;;;;5072075;28;20035;-45
2021/11/23 11:22:22;;;;;;;20.52;16.08;;;10.50;99.90;;;;;;5071554;28;20495;-50
2021/11/23 11:25:15;;;;;;;25.23;16.73;;;10.70;99.90;;;;;;5067621;28;20119;-50
2021/11/23 11:27:44;;;;;;;;;;;10.90;99.90;;;;;;5076254;28;20384;-48
2021/11/23 11:30:35;;;;;;;21.58;16.17;;;11.10;99.90;;;;;;5071050;28;19908;-48
2021/11/23 11:33:04;;;;;;;22.60;15.90;;;11.20;99.90;;;;;;5081962;28;20464;-48
2021/11/23 11:35:34;;;;;;;23.95;18.42;;;11.30;99.90;;;;;;5067172;28;20028;-48
2021/11/23 11:38:04;;;;;;;20.40;16.25;;;11.40;99.90;;;;;;5067597;28;20033;-48
2021/11/23 11:40:35;;;;;;;21.13;13.18;;;11.40;99.90;;;;;;5066863;28;20086;-48
2021/11/23 11:43:06;;;;;;;21.50;12.85;;;11.00;99.90;;;;;;5068235;28;20029;-48
2021/11/23 11:45:46;;;;;;;15.70;11.30;;;10.90;99.90;;;;;;5068671;28;20045;-47
2021/11/23 11:48:34;;;;;;;17.83;13.27;;;10.70;99.90;;;;;;5068227;28;20031;-47
2021/11/23 11:51:01;;;;;;;21.05;14.63;;;10.80;99.90;;;;;;5069126;28;20032;-47
2021/11/23 11:53:32;;;;;;;21.90;14.55;;;10.90;99.90;;;;;;5080612;28;20078;-47
2021/11/23 11:55:58;;;;;;;18.80;12.77;;;11.00;99.90;;;;;;5084721;28;20076;-47
2021/11/23 11:58:56;;;;;;;14.93;11.98;;;10.90;99.90;;;;;;5084823;28;20122;-47
2021/11/23 12:01:27;;;;;;;19.13;13.82;;;10.70;99.90;;;;;;5068722;28;20041;-47
2021/11/23 12:04:14;;;;;;;16.73;13.55;;;10.80;99.90;;;;;;5065960;28;20368;-47
2021/11/23 12:07:04;;;;;;;19.63;13.35;;;11.10;99.90;;;;;;5067521;28;20040;-48
2021/11/23 12:09:40;;;;;;;21.38;15.57;;;11.20;99.90;;;;;;5068450;28;20090;-47
2021/11/23 12:12:11;;;;;;;22.75;15.73;;;11.40;99.90;;;;;;5065601;28;20098;-48
2021/11/23 12:15:08;;;;;;;32.50;21.98;;;11.20;99.90;;;;;;5066966;28;20048;-48
2021/11/23 12:17:34;;;;;;;30.08;21.45;;;11.20;99.90;;;;;;5068057;28;20568;-48
2021/11/23 12:20:29;;;;;;;45.30;28.75;;;11.30;99.90;;;;;;5070689;28;20071;-49
2021/11/23 12:23:16;;;;;;;49.13;30.08;;;11.30;99.90;;;;;;5065154;28;20044;-48
2021/11/23 12:26:12;;;;;;;18.20;14.10;;;11.20;99.90;;;;;;5068651;28;20037;-47
2021/11/23 12:28:39;;;;;;;85.20;42.80;;;11.40;99.90;;;;;;4992924;28;20074;-47
2021/11/23 12:31:10;;;;;;;38.67;25.45;;;11.40;99.90;;;;;;4976282;28;20082;-47
2021/11/23 12:33:46;;;;;;;28.10;20.77;;;11.50;99.90;;;;;;4992452;28;20494;-47
2021/11/23 12:36:18;;;;;;;19.23;14.77;;;11.50;99.90;;;;;;4989010;28;20045;-47
2021/11/23 12:38:46;;;;;;;17.73;14.85;;;11.60;99.90;;;;;;4991844;28;20050;-47